La Veta Pass, CO

11:01 AM MDT on October 23, 2014 (GMT -0600)
Stokes | Change Station
CLOSE
Current Station
Airport
Location: Trinidad,
Elevation: 5761 ft
Nearby Weather Stations

Elev 5761 ft 37.26 °N, 104.33 °W | Updated 7 minutes ago

Clear
Clear
66 °F
Feels Like 66 °F
N
4
Wind Variable Wind from Variable

Today
High -- | Low -- °F
--% Chance of Precip.
Yesterday
High -- | Low -- °F
Precip. -- in
7:16 AM 6:12 PM
Waning Crescent, 0% visible
Pressure 30.06 in
Visibility 10.0 miles
Clouds Clear
Dew Point 34 °F
Humidity 30%
Rainfall 0.00 in
Snow Depth 0 in , 0 in , 0 in
UV 5 out of 12
Pollen 2.10 out of 12
Air Quality Not available.
Flu Activity Sporadic
METAR KTAD 231654Z AUTO VRB03KT 10SM CLR 19/01 A3023 RMK AO2 SLP177 T01890011

More Conditions Fewer Conditions

Pressure 30.06 in
Visibility 10.0 miles
Clouds Clear
Dew Point 34 °F
Humidity 30%
Rainfall 0.00 in
Snow Depth 0 in , 0 in , 0 in
UV 5 out of 12
Pollen 2.10 out of 12
Air Quality Not available.
Flu Activity Sporadic
METAR KTAD 231654Z AUTO VRB03KT 10SM CLR 19/01 A3023 RMK AO2 SLP177 T01890011

More Conditions Fewer Conditions

10-Day Weather Forecast

Almanac

Astronomy

Oct. 23, 2014 Rise Set
Actual Time 7:16 AM MDT 6:12 PM MDT
Civil Twilight 6:49 AM MDT 6:39 PM MDT
Nautical Twilight 6:19 AM MDT 7:09 PM MDT
Astronomical Twilight 5:49 AM MDT 7:40 PM MDT
Moon 6:59 AM MDT 6:16 PM MDT
Length of Visible Light 11h 49m
Length of Day
10h 56m
Tomorrow will be 2m 13s shorter.
Waning Crescent, 0% of the Moon is Illuminated
Today
Waning Crescent
Oct 23
New
Oct 30
First Quarter
Nov 6
Full
Nov 14
Last Quarter

Today's Extremes

State Highs State Lows

Community

WunderPhotos

Upload Photos

1,764,311 photos uploaded!

WunderBlogs® & News

Nearby

Snow Depth

Station Depth Elevation
Trinchera 0 in 10860 ft
Ute Creek 0 in 10650 ft
Culebra #2 0 in 10500 ft
Medano Pass 1 in 9620 ft
South Colony 1 in 10800 ft

Earthquake Activity

City Distance Mag. Time & Date
Trinidad, Colorado 31 miles 2.7 10:33 PM MDT
2014-10-20
Minimum magnitude displayed is 2.5.

Coastal Water Temperatures

Place Temperature
No Stations Reporting

Nearby Weather Stations